createdAt,value
2023-05-13T00:02:14.689Z,18.00
2023-05-13T00:07:18.602Z,24.40
2023-05-13T00:31:35.428Z,17.30
2023-05-13T00:44:08.354Z,12.30
2023-05-13T00:57:42.536Z,11.40
2023-05-13T01:03:09.006Z,17.50
2023-05-13T01:09:16.397Z,11.70
2023-05-13T01:37:22.873Z,16.10
2023-05-13T01:42:29.990Z,29.10
2023-05-13T01:47:33.912Z,26.10
2023-05-13T02:07:21.651Z,14.30
2023-05-13T02:12:27.414Z,15.00
2023-05-13T02:17:35.039Z,14.10
2023-05-13T02:37:27.627Z,14.80
2023-05-13T02:49:56.532Z,20.60
2023-05-13T02:55:00.396Z,18.40
2023-05-13T03:01:39.379Z,12.00
2023-05-13T03:06:43.074Z,17.70
2023-05-13T03:11:47.311Z,13.50
2023-05-13T03:16:50.995Z,19.60
2023-05-13T03:21:55.174Z,16.20
2023-05-13T03:35:36.841Z,16.30
2023-05-13T03:56:00.734Z,20.40
2023-05-13T04:24:27.514Z,22.90
2023-05-13T04:30:47.919Z,19.10
2023-05-13T04:56:04.686Z,14.80
2023-05-13T05:01:58.799Z,11.40
2023-05-13T05:07:22.167Z,6.80
2023-05-13T05:12:26.451Z,11.00
2023-05-13T05:17:33.037Z,14.30
2023-05-13T05:22:38.928Z,11.10
2023-05-13T05:28:40.459Z,12.60
2023-05-13T05:33:44.947Z,10.80
2023-05-13T05:46:46.952Z,7.30
2023-05-13T05:51:50.783Z,10.00
2023-05-13T06:11:15.283Z,11.20
2023-05-13T06:17:09.797Z,7.00
2023-05-13T06:22:13.840Z,7.90
2023-05-13T06:28:13.893Z,10.80
2023-05-13T06:40:26.113Z,12.60
2023-05-13T06:45:30.276Z,10.80
2023-05-13T06:51:00.219Z,4.30
2023-05-13T06:56:04.535Z,5.50
2023-05-13T07:01:08.198Z,6.30
2023-05-13T07:06:12.973Z,5.30
2023-05-13T07:11:16.833Z,11.10
2023-05-13T07:16:21.288Z,6.90
2023-05-13T07:21:25.131Z,4.50
2023-05-13T07:26:28.948Z,11.50
2023-05-13T07:38:46.565Z,5.40
2023-05-13T07:43:50.400Z,5.40
2023-05-13T07:53:18.259Z,4.30
2023-05-13T07:58:23.377Z,3.00
2023-05-13T08:10:34.495Z,8.70
2023-05-13T08:15:38.933Z,5.10
2023-05-13T08:20:42.979Z,3.80
2023-05-13T08:50:36.818Z,10.80
2023-05-13T09:03:52.637Z,9.20
2023-05-13T09:08:57.306Z,4.50
2023-05-13T09:14:33.396Z,7.70
2023-05-13T09:26:57.910Z,7.10
2023-05-13T09:32:02.349Z,8.90
2023-05-13T09:37:08.622Z,5.80
2023-05-13T09:46:39.773Z,9.00
2023-05-13T09:51:46.377Z,5.10
2023-05-13T09:56:59.989Z,11.50
2023-05-13T10:02:09.122Z,7.00
2023-05-13T10:07:13.581Z,3.00
2023-05-13T10:12:20.380Z,3.30
2023-05-13T10:17:26.460Z,7.30
2023-05-13T10:22:40.896Z,5.10
2023-05-13T10:27:45.251Z,8.50
2023-05-13T10:32:50.029Z,6.50
2023-05-13T10:38:07.486Z,7.50
2023-05-13T10:43:22.365Z,10.20
2023-05-13T10:48:26.848Z,9.50
2023-05-13T10:53:44.764Z,4.70
2023-05-13T10:59:03.929Z,18.00
2023-05-13T11:04:07.855Z,5.90
2023-05-13T11:09:21.087Z,10.80
2023-05-13T11:14:27.118Z,12.70
2023-05-13T11:19:52.821Z,13.80
2023-05-13T11:25:11.185Z,11.20
2023-05-13T11:30:27.610Z,9.80
2023-05-13T11:35:33.578Z,4.90
2023-05-13T11:40:39.271Z,6.20
2023-05-13T11:45:45.905Z,10.00
2023-05-13T11:51:41.848Z,4.60
2023-05-13T11:56:45.603Z,6.90
2023-05-13T12:02:01.459Z,9.20
2023-05-13T12:13:59.001Z,5.00
2023-05-13T12:20:42.471Z,12.40
2023-05-13T12:25:51.494Z,19.30
2023-05-13T12:31:06.159Z,7.10
2023-05-13T12:36:26.002Z,7.60
2023-05-13T12:41:40.492Z,5.40
2023-05-13T12:53:56.955Z,11.60
2023-05-13T12:59:56.225Z,4.60
2023-05-13T13:04:59.765Z,5.00
2023-05-13T13:10:04.018Z,19.00
2023-05-13T13:15:09.755Z,3.10
2023-05-13T13:20:23.026Z,8.20
2023-05-13T13:25:27.559Z,63.50
2023-05-13T13:30:34.247Z,81.60
2023-05-13T13:35:38.293Z,11.90
2023-05-13T13:40:48.247Z,7.80
2023-05-13T13:45:52.012Z,3.90
2023-05-13T13:51:08.308Z,6.00
2023-05-13T14:03:34.424Z,9.90
2023-05-13T14:08:38.632Z,5.80
2023-05-13T14:28:04.582Z,6.80
2023-05-13T14:34:01.109Z,9.90
2023-05-13T14:39:04.915Z,5.80
2023-05-13T14:45:26.027Z,38.40
2023-05-13T14:50:29.836Z,7.90
2023-05-13T14:55:45.527Z,9.10
2023-05-13T15:00:51.708Z,5.20
2023-05-13T15:05:57.595Z,20.00
2023-05-13T15:11:01.399Z,8.60
2023-05-13T15:30:57.576Z,3.90
2023-05-13T15:42:52.504Z,9.50
2023-05-13T15:48:21.389Z,25.40
2023-05-13T15:53:25.270Z,7.20
2023-05-13T15:58:58.386Z,3.30
2023-05-13T16:11:40.290Z,6.20
2023-05-13T16:16:44.310Z,7.50
2023-05-13T16:21:48.933Z,13.70
2023-05-13T16:26:52.980Z,15.60
2023-05-13T16:31:57.570Z,21.20
2023-05-13T16:37:01.541Z,10.30
2023-05-13T16:42:06.495Z,16.30
2023-05-13T16:47:10.757Z,11.80
2023-05-13T16:52:14.461Z,8.80
2023-05-13T16:57:20.547Z,7.70
2023-05-13T17:02:24.531Z,3.00
2023-05-13T17:07:28.448Z,4.50
2023-05-13T17:12:32.724Z,7.60
2023-05-13T17:17:36.750Z,6.30
2023-05-13T17:22:45.834Z,10.20
2023-05-13T17:27:49.548Z,9.30
2023-05-13T17:32:53.427Z,13.40
2023-05-13T17:37:57.436Z,7.60
2023-05-13T17:43:04.062Z,25.10
2023-05-13T17:55:11.375Z,30.10
2023-05-13T18:00:16.324Z,24.50
2023-05-13T18:05:23.375Z,23.50
2023-05-13T18:10:29.210Z,40.80
2023-05-13T18:15:59.440Z,49.80
2023-05-13T18:21:03.393Z,32.20
2023-05-13T18:26:07.866Z,56.50
2023-05-13T18:31:22.107Z,51.80
2023-05-13T18:36:52.428Z,47.70
2023-05-13T18:42:00.316Z,15.30
2023-05-13T18:55:14.800Z,19.90
2023-05-13T19:00:22.918Z,20.30
2023-05-13T19:11:05.022Z,13.00
2023-05-13T19:16:10.004Z,8.00
2023-05-13T19:21:13.718Z,8.70
2023-05-13T19:26:17.453Z,8.00
2023-05-13T19:31:37.295Z,7.50
2023-05-13T19:44:56.186Z,5.50
2023-05-13T19:50:00.011Z,6.10
2023-05-13T19:55:56.209Z,9.60
2023-05-13T20:01:15.208Z,12.40
2023-05-13T20:06:18.982Z,13.50
2023-05-13T20:18:27.230Z,15.10
2023-05-13T20:32:01.008Z,16.40
2023-05-13T20:58:17.037Z,9.30
2023-05-13T21:04:50.238Z,6.90
2023-05-13T21:10:45.159Z,7.10
2023-05-13T21:15:52.158Z,7.50
2023-05-13T21:20:55.882Z,10.70
2023-05-13T21:26:25.508Z,7.00
2023-05-13T21:31:29.795Z,8.00
2023-05-13T21:36:34.103Z,7.60
2023-05-13T21:41:37.998Z,11.70
2023-05-13T22:00:56.914Z,8.90
2023-05-13T22:10:49.804Z,20.00
2023-05-13T22:15:53.700Z,18.60
2023-05-13T22:21:03.248Z,16.60
2023-05-13T22:26:07.038Z,17.30
2023-05-13T22:31:17.678Z,18.50
2023-05-13T22:36:21.783Z,21.50
2023-05-13T22:41:28.602Z,20.40
2023-05-13T22:57:06.355Z,22.10
2023-05-13T23:02:10.021Z,19.10
2023-05-13T23:30:00.391Z,24.60
2023-05-13T23:35:05.004Z,22.60
2023-05-13T23:40:59.870Z,29.50
2023-05-13T23:46:03.857Z,21.90
2023-05-13T23:51:08.054Z,24.20
2023-05-13T23:56:12.830Z,21.00
